Time,TemperatureF,DewpointF,PressureIn,WindDirection,WindDirectionDegrees,WindSpeedMPH,WindSpeedGustMPH,Humidity,HourlyPrecipIn,Conditions,Clouds,dailyrainin,SoftwareType,DateUTC
2013-04-27 00:06:00,47.5,23.0,30.11,South,190,0.0,3.0,38,0.00,,,0.00,weatherlink.com 1.10,2013-04-27 06:06:00,
2013-04-27 00:21:00,46.7,24.0,30.11,South,190,0.0,1.0,41,0.00,,,0.00,weatherlink.com 1.10,2013-04-27 06:21:00,
2013-04-27 00:36:00,45.7,24.0,30.11,South,190,0.0,0.0,42,0.00,,,0.00,weatherlink.com 1.10,2013-04-27 06:36:00,
2013-04-27 00:51:00,44.7,24.0,30.10,South,190,0.0,0.0,44,0.00,,,0.00,weatherlink.com 1.10,2013-04-27 06:51:00,
2013-04-27 01:06:00,44.0,24.0,30.10,South,190,0.0,0.0,46,0.00,,,0.00,weatherlink.com 1.10,2013-04-27 07:06:00,
2013-04-27 01:21:00,43.0,24.0,30.10,South,190,0.0,0.0,47,0.00,,,0.00,weatherlink.com 1.10,2013-04-27 07:21:00,
2013-04-27 01:37:00,42.4,24.0,30.09,South,190,1.0,1.0,49,0.00,,,0.00,weatherlink.com 1.10,2013-04-27 07:37:00,
2013-04-27 01:52:00,41.9,25.0,30.08,South,190,0.0,0.0,51,0.00,,,0.00,weatherlink.com 1.10,2013-04-27 07:52:00,
2013-04-27 02:07:00,41.5,25.0,30.07,South,190,0.0,2.0,52,0.00,,,0.00,weatherlink.com 1.10,2013-04-27 08:07:00,
2013-04-27 02:22:00,41.9,23.0,30.07,South,190,0.0,2.0,47,0.00,,,0.00,weatherlink.com 1.10,2013-04-27 08:22:00,
2013-04-27 02:37:00,43.3,23.0,30.07,SSE,148,0.0,1.0,45,0.00,,,0.00,weatherlink.com 1.10,2013-04-27 08:37:00,
2013-04-27 02:52:00,42.4,23.0,30.07,SSE,148,0.0,1.0,47,0.00,,,0.00,weatherlink.com 1.10,2013-04-27 08:52:00,
2013-04-27 03:07:00,41.1,24.0,30.07,SSE,148,0.0,1.0,50,0.00,,,0.00,weatherlink.com 1.10,2013-04-27 09:07:00,
2013-04-27 03:22:00,40.8,24.0,30.06,SSE,151,1.0,2.0,51,0.00,,,0.00,weatherlink.com 1.10,2013-04-27 09:22:00,
2013-04-27 03:37:00,40.1,24.0,30.06,SSE,151,0.0,0.0,53,0.00,,,0.00,weatherlink.com 1.10,2013-04-27 09:37:00,
2013-04-27 03:52:00,39.0,24.0,30.06,SSE,151,0.0,1.0,56,0.00,,,0.00,weatherlink.com 1.10,2013-04-27 09:52:00,
2013-04-27 04:07:00,38.1,25.0,30.06,SSE,151,0.0,0.0,59,0.00,,,0.00,weatherlink.com 1.10,2013-04-27 10:07:00,
2013-04-27 04:22:00,37.6,25.0,30.06,SSE,151,0.0,1.0,60,0.00,,,0.00,weatherlink.com 1.10,2013-04-27 10:22:00,
2013-04-27 04:37:00,37.4,24.0,30.06,SW,221,0.0,3.0,60,0.00,,,0.00,weatherlink.com 1.10,2013-04-27 10:37:00,
2013-04-27 04:52:00,37.7,25.0,30.06,SW,221,0.0,1.0,60,0.00,,,0.00,weatherlink.com 1.10,2013-04-27 10:52:00,
2013-04-27 05:07:00,37.4,24.0,30.05,SW,221,0.0,0.0,60,0.00,,,0.00,weatherlink.com 1.10,2013-04-27 11:07:00,
2013-04-27 05:22:00,37.3,24.0,30.05,SW,221,0.0,1.0,58,0.00,,,0.00,weatherlink.com 1.10,2013-04-27 11:22:00,
2013-04-27 05:37:00,36.9,23.0,30.05,SW,221,0.0,1.0,57,0.00,,,0.00,weatherlink.com 1.10,2013-04-27 11:37:00,
2013-04-27 05:52:00,36.6,23.0,30.06,SW,221,0.0,1.0,59,0.00,,,0.00,weatherlink.com 1.10,2013-04-27 11:52:00,
2013-04-27 06:07:00,36.6,23.0,30.06,SW,234,0.0,4.0,58,0.00,,,0.00,weatherlink.com 1.10,2013-04-27 12:07:00,
2013-04-27 06:22:00,36.6,23.0,30.06,SW,234,0.0,2.0,59,0.00,,,0.00,weatherlink.com 1.10,2013-04-27 12:22:00,
2013-04-27 06:37:00,37.3,24.0,30.07,SW,234,0.0,2.0,58,0.00,,,0.00,weatherlink.com 1.10,2013-04-27 12:37:00,
2013-04-27 06:52:00,38.9,23.0,30.07,SW,234,0.0,0.0,53,0.00,,,0.00,weatherlink.com 1.10,2013-04-27 12:52:00,
2013-04-27 07:07:00,40.5,23.0,30.08,SW,234,0.0,1.0,51,0.00,,,0.00,weatherlink.com 1.10,2013-04-27 13:07:00,
2013-04-27 07:22:00,43.4,25.0,30.07,SW,235,1.0,3.0,48,0.00,,,0.00,weatherlink.com 1.10,2013-04-27 13:22:00,
2013-04-27 07:37:00,46.4,25.0,30.08,South,178,0.0,2.0,43,0.00,,,0.00,weatherlink.com 1.10,2013-04-27 13:37:00,
2013-04-27 07:52:00,50.7,22.0,30.08,South,188,1.0,3.0,33,0.00,,,0.00,weatherlink.com 1.10,2013-04-27 13:52:00,
2013-04-27 08:07:00,53.8,21.0,30.07,South,188,1.0,2.0,28,0.00,,,0.00,weatherlink.com 1.10,2013-04-27 14:07:00,
2013-04-27 08:22:00,56.7,20.0,30.07,South,180,0.0,3.0,24,0.00,,,0.00,weatherlink.com 1.10,2013-04-27 14:22:00,
2013-04-27 08:37:00,59.2,17.0,30.06,SSW,192,1.0,3.0,19,0.00,,,0.00,weatherlink.com 1.10,2013-04-27 14:37:00,
2013-04-27 08:53:00,60.5,22.0,30.06,East,96,3.0,6.0,23,0.00,,,0.00,weatherlink.com 1.10,2013-04-27 14:53:00,
2013-04-27 09:08:00,62.1,24.0,30.05,SE,144,5.0,6.0,23,0.00,,,0.00,weatherlink.com 1.10,2013-04-27 15:08:00,
2013-04-27 09:22:00,63.4,24.0,30.05,SE,138,0.0,4.0,22,0.00,,,0.00,weatherlink.com 1.10,2013-04-27 15:22:00,
2013-04-27 09:38:00,65.2,13.0,30.04,NW,317,1.0,4.0,13,0.00,,,0.00,weatherlink.com 1.10,2013-04-27 15:38:00,
2013-04-27 09:53:00,65.3,11.0,30.04,NE,35,1.0,6.0,12,0.00,,,0.00,weatherlink.com 1.10,2013-04-27 15:53:00,
2013-04-27 10:08:00,66.3,6.0,30.04,NNW,338,0.0,6.0,9,0.00,,,0.00,weatherlink.com 1.10,2013-04-27 16:08:00,
2013-04-27 10:23:00,66.1,8.0,30.05,SW,233,1.0,7.0,10,0.00,,,0.00,weatherlink.com 1.10,2013-04-27 16:23:00,
2013-04-27 10:38:00,67.2,6.0,30.04,NE,42,0.0,3.0,9,0.00,,,0.00,weatherlink.com 1.10,2013-04-27 16:38:00,
2013-04-27 10:53:00,68.1,7.0,30.04,WNW,284,1.0,5.0,9,0.00,,,0.00,weatherlink.com 1.10,2013-04-27 16:53:00,
2013-04-27 11:08:00,66.9,6.0,30.04,West,277,3.0,8.0,9,0.00,,,0.00,weatherlink.com 1.10,2013-04-27 17:08:00,
2013-04-27 11:23:00,67.4,4.0,30.04,NNW,331,1.0,6.0,8,0.00,,,0.00,weatherlink.com 1.10,2013-04-27 17:23:00,
2013-04-27 11:38:00,68.1,7.0,30.03,South,180,3.0,6.0,9,0.00,,,0.00,weatherlink.com 1.10,2013-04-27 17:38:00,
2013-04-27 11:53:00,68.4,7.0,30.03,WNW,302,5.0,10.0,9,0.00,,,0.00,weatherlink.com 1.10,2013-04-27 17:53:00,
2013-04-27 12:08:00,68.4,10.0,30.02,NW,314,3.0,6.0,10,0.00,,,0.00,weatherlink.com 1.10,2013-04-27 18:08:00,
2013-04-27 12:23:00,68.5,12.0,30.02,WNW,290,4.0,11.0,11,0.00,,,0.00,weatherlink.com 1.10,2013-04-27 18:23:00,
2013-04-27 12:38:00,69.8,11.0,30.00,SSW,203,8.0,10.0,10,0.00,,,0.00,weatherlink.com 1.10,2013-04-27 18:38:00,
2013-04-27 12:53:00,69.5,13.0,30.00,NNE,23,3.0,7.0,11,0.00,,,0.00,weatherlink.com 1.10,2013-04-27 18:53:00,
2013-04-27 13:08:00,70.6,6.0,29.99,North,11,3.0,10.0,8,0.00,,,0.00,weatherlink.com 1.10,2013-04-27 19:08:00,
2013-04-27 13:23:00,69.8,17.0,29.98,WNW,285,4.0,10.0,13,0.00,,,0.00,weatherlink.com 1.10,2013-04-27 19:23:00,
2013-04-27 13:38:00,70.4,11.0,29.98,South,169,3.0,6.0,10,0.00,,,0.00,weatherlink.com 1.10,2013-04-27 19:38:00,
2013-04-27 13:53:00,70.1,8.0,29.97,SSW,209,2.0,11.0,9,0.00,,,0.00,weatherlink.com 1.10,2013-04-27 19:53:00,
2013-04-27 14:08:00,69.7,6.0,29.97,SE,138,3.0,8.0,8,0.00,,,0.00,weatherlink.com 1.10,2013-04-27 20:08:00,
2013-04-27 14:23:00,70.3,6.0,29.96,NW,305,3.0,11.0,8,0.00,,,0.00,weatherlink.com 1.10,2013-04-27 20:23:00,
2013-04-27 14:38:00,70.3,9.0,29.95,NW,313,3.0,10.0,9,0.00,,,0.00,weatherlink.com 1.10,2013-04-27 20:38:00,
2013-04-27 14:53:00,70.9,12.0,29.95,North,360,4.0,6.0,10,0.00,,,0.00,weatherlink.com 1.10,2013-04-27 20:53:00,
2013-04-27 15:08:00,71.6,12.0,29.94,West,261,3.0,8.0,10,0.00,,,0.00,weatherlink.com 1.10,2013-04-27 21:08:00,
2013-04-27 15:23:00,71.0,9.0,29.93,North,355,2.0,9.0,9,0.00,,,0.00,weatherlink.com 1.10,2013-04-27 21:23:00,
2013-04-27 15:38:00,71.2,9.0,29.93,WNW,295,0.0,6.0,9,0.00,,,0.00,weatherlink.com 1.10,2013-04-27 21:38:00,
2013-04-27 15:53:00,72.2,8.0,29.91,NE,40,4.0,8.0,8,0.00,,,0.00,weatherlink.com 1.10,2013-04-27 21:53:00,
2013-04-27 16:09:00,71.4,9.0,29.91,WNW,297,5.0,17.0,9,0.00,,,0.00,weatherlink.com 1.10,2013-04-27 22:09:00,
2013-04-27 16:24:00,71.6,10.0,29.90,WNW,288,2.0,6.0,9,0.00,,,0.00,weatherlink.com 1.10,2013-04-27 22:24:00,
2013-04-27 16:39:00,71.4,7.0,29.90,WSW,252,2.0,9.0,8,0.00,,,0.00,weatherlink.com 1.10,2013-04-27 22:39:00,
2013-04-27 16:54:00,72.9,8.0,29.89,WNW,292,2.0,5.0,8,0.00,,,0.00,weatherlink.com 1.10,2013-04-27 22:54:00,
2013-04-27 17:09:00,72.2,5.0,29.89,NNW,342,2.0,8.0,7,0.00,,,0.00,weatherlink.com 1.10,2013-04-27 23:09:00,
2013-04-27 17:24:00,72.0,4.0,29.88,NW,308,4.0,7.0,7,0.00,,,0.00,weatherlink.com 1.10,2013-04-27 23:24:00,
2013-04-27 17:39:00,71.9,10.0,29.88,NE,36,3.0,6.0,9,0.00,,,0.00,weatherlink.com 1.10,2013-04-27 23:39:00,
2013-04-27 17:54:00,71.1,7.0,29.88,NNE,24,1.0,7.0,8,0.00,,,0.00,weatherlink.com 1.10,2013-04-27 23:54:00,
2013-04-27 18:09:00,71.7,4.0,29.88,North,5,2.0,7.0,7,0.00,,,0.00,weatherlink.com 1.10,2013-04-28 00:09:00,
2013-04-27 18:24:00,71.4,4.0,29.88,NNW,344,3.0,6.0,7,0.00,,,0.00,weatherlink.com 1.10,2013-04-28 00:24:00,
2013-04-27 18:39:00,71.5,4.0,29.88,NNW,347,2.0,6.0,7,0.00,,,0.00,weatherlink.com 1.10,2013-04-28 00:39:00,
2013-04-27 18:54:00,70.2,6.0,29.88,WNW,300,5.0,10.0,8,0.00,,,0.00,weatherlink.com 1.10,2013-04-28 00:54:00,
2013-04-27 19:09:00,69.6,8.0,29.88,North,355,3.0,9.0,9,0.00,,,0.00,weatherlink.com 1.10,2013-04-28 01:09:00,
2013-04-27 19:24:00,68.4,10.0,29.88,WNW,291,3.0,9.0,10,0.00,,,0.00,weatherlink.com 1.10,2013-04-28 01:24:00,
2013-04-27 19:39:00,67.1,11.0,29.88,WNW,292,4.0,8.0,11,0.00,,,0.00,weatherlink.com 1.10,2013-04-28 01:39:00,
2013-04-27 19:54:00,66.2,12.0,29.89,WNW,298,3.0,9.0,12,0.00,,,0.00,weatherlink.com 1.10,2013-04-28 01:54:00,
2013-04-27 20:09:00,65.6,13.0,29.89,WNW,300,2.0,9.0,13,0.00,,,0.00,weatherlink.com 1.10,2013-04-28 02:09:00,
2013-04-27 20:24:00,64.9,13.0,29.89,WNW,296,2.0,7.0,13,0.00,,,0.00,weatherlink.com 1.10,2013-04-28 02:24:00,
2013-04-27 20:39:00,64.5,14.0,29.90,WNW,293,2.0,9.0,14,0.00,,,0.00,weatherlink.com 1.10,2013-04-28 02:39:00,
2013-04-27 20:54:00,64.0,15.0,29.90,NW,306,4.0,8.0,15,0.00,,,0.00,weatherlink.com 1.10,2013-04-28 02:54:00,
2013-04-27 21:09:00,63.8,13.0,29.90,West,266,4.0,9.0,14,0.00,,,0.00,weatherlink.com 1.10,2013-04-28 03:09:00,
2013-04-27 21:24:00,63.4,15.0,29.90,WNW,286,4.0,12.0,15,0.00,,,0.00,weatherlink.com 1.10,2013-04-28 03:24:00,
2013-04-27 21:39:00,62.9,14.0,29.91,WNW,302,5.0,11.0,15,0.00,,,0.00,weatherlink.com 1.10,2013-04-28 03:39:00,
2013-04-27 21:54:00,62.3,15.0,29.91,WNW,293,3.0,9.0,16,0.00,,,0.00,weatherlink.com 1.10,2013-04-28 03:54:00,
2013-04-27 22:09:00,62.2,14.0,29.91,West,281,5.0,7.0,15,0.00,,,0.00,weatherlink.com 1.10,2013-04-28 04:09:00,
2013-04-27 22:24:00,61.9,14.0,29.91,WNW,284,3.0,7.0,15,0.00,,,0.00,weatherlink.com 1.10,2013-04-28 04:24:00,
2013-04-27 22:39:00,60.9,14.0,29.90,West,263,0.0,5.0,16,0.00,,,0.00,weatherlink.com 1.10,2013-04-28 04:39:00,
2013-04-27 22:54:00,60.0,15.0,29.90,WNW,288,1.0,4.0,17,0.00,,,0.00,weatherlink.com 1.10,2013-04-28 04:54:00,
2013-04-27 23:09:00,58.5,16.0,29.90,WNW,294,1.0,3.0,19,0.00,,,0.00,weatherlink.com 1.10,2013-04-28 05:09:00,
2013-04-27 23:24:00,57.5,17.0,29.89,WNW,294,0.0,0.0,20,0.00,,,0.00,weatherlink.com 1.10,2013-04-28 05:24:00,
2013-04-27 23:39:00,55.8,18.0,29.89,WNW,294,0.0,0.0,23,0.00,,,0.00,weatherlink.com 1.10,2013-04-28 05:39:00,
2013-04-27 23:54:00,53.9,18.0,29.89,WNW,294,0.0,2.0,24,0.00,,,0.00,weatherlink.com 1.10,2013-04-28 05:54:00,